JA724C RJFK-RJFM
Flight info
| Callsign | JA724C |
|---|---|
| Flight time | N/A |
| Altitude | 2500 |
| Route | HKC ISKID AMMON TGE40 EKORU MZE FENIX HIGOH GOWAS JINGU IKIME KARAH KONGU OYODO |
| Aircraft | C172/L-SFG/C |
Departure
| Time | 2026-05-01 12:24 |
|---|---|
| Airport | Kagoshima Airport (RJFK) |
Arrival
| Time | N/A |
|---|---|
| Airport | Miyazaki Airport (RJFM) |
| Time | Latitude | Longitude | Altitude | Speed | Heading |
|---|---|---|---|---|---|
| 2026-05-01 11:55 | 31.79369 | 130.72278 | 867 ft | 0 kts | 0° |
| 2026-05-01 12:17 | 31.79381 | 130.72288 | 867 ft | 4 kts | 70° |
| 2026-05-01 12:17 | 31.79391 | 130.72314 | 867 ft | 0 kts | 58° |
| 2026-05-01 12:18 | 31.79391 | 130.72316 | 867 ft | 0 kts | 57° |
| 2026-05-01 12:19 | 31.79385 | 130.72360 | 866 ft | 13 kts | 145° |
| 2026-05-01 12:19 | 31.79285 | 130.72426 | 859 ft | 18 kts | 149° |
| 2026-05-01 12:19 | 31.79160 | 130.72510 | 852 ft | 20 kts | 152° |
| 2026-05-01 12:19 | 31.79117 | 130.72607 | 850 ft | 11 kts | 68° |
| 2026-05-01 12:20 | 31.79136 | 130.72646 | 850 ft | 0 kts | 58° |
| 2026-05-01 12:21 | 31.79138 | 130.72650 | 850 ft | 4 kts | 58° |
| 2026-05-01 12:21 | 31.79188 | 130.72705 | 850 ft | 11 kts | 7° |
| 2026-05-01 12:21 | 31.79223 | 130.72694 | 850 ft | 0 kts | 330° |
| 2026-05-01 12:22 | 31.79223 | 130.72693 | 850 ft | 0 kts | 328° |
| 2026-05-01 12:22 | 31.79333 | 130.72620 | 854 ft | 41 kts | 329° |
| 2026-05-01 12:23 | 31.79659 | 130.72388 | 956 ft | 55 kts | 317° |
| 2026-05-01 12:23 | 31.79949 | 130.72159 | 1172 ft | 45 kts | 315° |
| 2026-05-01 12:23 | 31.80055 | 130.71815 | 1262 ft | 58 kts | 257° |
| 2026-05-01 12:23 | 31.79835 | 130.71324 | 1359 ft | 73 kts | 246° |
| 2026-05-01 12:24 | 31.79562 | 130.70810 | 1458 ft | 76 kts | 246° |
| 2026-05-01 12:24 | 31.79232 | 130.70323 | 1553 ft | 79 kts | 235° |
| 2026-05-01 12:24 | 31.78799 | 130.69902 | 1639 ft | 78 kts | 238° |
| 2026-05-01 12:24 | 31.78406 | 130.69518 | 1690 ft | 72 kts | 232° |
| 2026-05-01 12:25 | 31.78040 | 130.69144 | 1783 ft | 70 kts | 234° |
| 2026-05-01 12:25 | 31.77216 | 130.68405 | 2040 ft | 73 kts | 228° |
| 2026-05-01 12:25 | 31.76787 | 130.68060 | 2198 ft | 76 kts | 231° |
| 2026-05-01 12:26 | 31.76330 | 130.67697 | 2325 ft | 84 kts | 227° |
| 2026-05-01 12:26 | 31.75281 | 130.66963 | 2521 ft | 92 kts | 219° |
| 2026-05-01 12:26 | 31.74737 | 130.66548 | 2637 ft | 87 kts | 232° |
| 2026-05-01 12:27 | 31.74198 | 130.66128 | 2651 ft | 98 kts | 224° |
| 2026-05-01 12:27 | 31.73036 | 130.65294 | 2628 ft | 97 kts | 224° |
| 2026-05-01 12:28 | 31.71877 | 130.64467 | 2630 ft | 98 kts | 224° |
| 2026-05-01 12:28 | 31.71301 | 130.64021 | 2626 ft | 97 kts | 231° |
| 2026-05-01 12:28 | 31.70271 | 130.62982 | 2627 ft | 97 kts | 233° |
| 2026-05-01 12:29 | 31.69766 | 130.62459 | 2632 ft | 97 kts | 233° |
| 2026-05-01 12:29 | 31.69249 | 130.61928 | 2628 ft | 98 kts | 232° |
| 2026-05-01 12:29 | 31.68227 | 130.60884 | 2619 ft | 96 kts | 233° |
| 2026-05-01 12:30 | 31.67244 | 130.59891 | 2595 ft | 88 kts | 232° |
| 2026-05-01 12:30 | 31.66781 | 130.59433 | 2616 ft | 87 kts | 232° |
| 2026-05-01 12:30 | 31.66307 | 130.58960 | 2621 ft | 91 kts | 233° |
| 2026-05-01 12:31 | 31.65815 | 130.58476 | 2636 ft | 95 kts | 232° |
| 2026-05-01 12:31 | 31.65309 | 130.57970 | 2624 ft | 96 kts | 232° |
| 2026-05-01 12:31 | 31.64802 | 130.57446 | 2631 ft | 96 kts | 233° |
| 2026-05-01 12:31 | 31.64291 | 130.56924 | 2590 ft | 100 kts | 233° |
| 2026-05-01 12:32 | 31.63753 | 130.56361 | 2504 ft | 104 kts | 233° |
| 2026-05-01 12:32 | 31.62638 | 130.55310 | 2491 ft | 105 kts | 217° |
| 2026-05-01 12:32 | 31.61973 | 130.54958 | 2495 ft | 103 kts | 214° |
| 2026-05-01 12:33 | 31.61312 | 130.54628 | 2492 ft | 102 kts | 213° |
| 2026-05-01 12:33 | 31.60656 | 130.54295 | 2492 ft | 102 kts | 214° |
| 2026-05-01 12:33 | 31.60005 | 130.53967 | 2498 ft | 102 kts | 213° |
| 2026-05-01 12:33 | 31.59350 | 130.53632 | 2490 ft | 102 kts | 214° |
| 2026-05-01 12:34 | 31.58674 | 130.53336 | 2490 ft | 104 kts | 204° |
| 2026-05-01 12:34 | 31.57941 | 130.53203 | 2479 ft | 107 kts | 192° |
| 2026-05-01 12:34 | 31.57189 | 130.53137 | 2483 ft | 107 kts | 193° |
| 2026-05-01 12:34 | 31.56441 | 130.53073 | 2488 ft | 108 kts | 193° |
| 2026-05-01 12:35 | 31.55682 | 130.53009 | 2493 ft | 109 kts | 193° |
| 2026-05-01 12:35 | 31.54928 | 130.52945 | 2491 ft | 109 kts | 193° |
| 2026-05-01 12:35 | 31.54170 | 130.52879 | 2488 ft | 108 kts | 193° |
| 2026-05-01 12:35 | 31.53420 | 130.52818 | 2491 ft | 107 kts | 192° |
| 2026-05-01 12:36 | 31.52660 | 130.52983 | 2494 ft | 113 kts | 169° |
| 2026-05-01 12:36 | 31.51901 | 130.53224 | 2495 ft | 112 kts | 175° |
| 2026-05-01 12:36 | 31.51135 | 130.53415 | 2497 ft | 113 kts | 173° |
| 2026-05-01 12:36 | 31.50360 | 130.53647 | 2501 ft | 114 kts | 172° |
| 2026-05-01 12:37 | 31.49591 | 130.53877 | 2491 ft | 115 kts | 172° |
| 2026-05-01 12:37 | 31.48813 | 130.54118 | 2491 ft | 115 kts | 172° |
| 2026-05-01 12:37 | 31.48029 | 130.54361 | 2487 ft | 116 kts | 172° |
| 2026-05-01 12:37 | 31.47238 | 130.54605 | 2494 ft | 117 kts | 172° |
| 2026-05-01 12:38 | 31.46449 | 130.54858 | 2488 ft | 118 kts | 172° |
| 2026-05-01 12:38 | 31.45652 | 130.55110 | 2491 ft | 117 kts | 173° |
| 2026-05-01 12:38 | 31.44871 | 130.55362 | 2493 ft | 117 kts | 172° |
| 2026-05-01 12:38 | 31.44082 | 130.55615 | 2496 ft | 116 kts | 172° |
| 2026-05-01 12:39 | 31.43292 | 130.55861 | 2493 ft | 117 kts | 172° |
| 2026-05-01 12:39 | 31.42499 | 130.56108 | 2491 ft | 117 kts | 172° |
| 2026-05-01 12:39 | 31.41709 | 130.56349 | 2492 ft | 116 kts | 172° |
| 2026-05-01 12:39 | 31.40925 | 130.56586 | 2498 ft | 116 kts | 172° |
| 2026-05-01 12:40 | 31.40139 | 130.56825 | 2500 ft | 117 kts | 172° |
| 2026-05-01 12:40 | 31.39348 | 130.57069 | 2498 ft | 117 kts | 172° |
| 2026-05-01 12:40 | 31.38549 | 130.57314 | 2497 ft | 118 kts | 173° |
| 2026-05-01 12:40 | 31.37754 | 130.57559 | 2494 ft | 117 kts | 173° |
| 2026-05-01 12:41 | 31.36964 | 130.57796 | 2492 ft | 117 kts | 173° |
| 2026-05-01 12:41 | 31.36168 | 130.58037 | 2502 ft | 117 kts | 173° |
| 2026-05-01 12:41 | 31.35370 | 130.58285 | 2492 ft | 118 kts | 172° |
| 2026-05-01 12:41 | 31.34572 | 130.58543 | 2489 ft | 118 kts | 172° |
| 2026-05-01 12:42 | 31.33819 | 130.58917 | 2485 ft | 121 kts | 141° |
| 2026-05-01 12:42 | 31.33311 | 130.59694 | 2495 ft | 121 kts | 123° |
| 2026-05-01 12:42 | 31.32822 | 130.60501 | 2491 ft | 122 kts | 123° |
| 2026-05-01 12:42 | 31.32321 | 130.61311 | 2495 ft | 122 kts | 123° |
| 2026-05-01 12:43 | 31.31824 | 130.62122 | 2500 ft | 123 kts | 124° |
| 2026-05-01 12:43 | 31.31318 | 130.62936 | 2497 ft | 123 kts | 122° |
| 2026-05-01 12:43 | 31.30810 | 130.63754 | 2489 ft | 124 kts | 123° |
| 2026-05-01 12:43 | 31.30306 | 130.64571 | 2490 ft | 124 kts | 123° |
| 2026-05-01 12:44 | 31.29803 | 130.65385 | 2490 ft | 123 kts | 123° |
| 2026-05-01 12:44 | 31.29303 | 130.66196 | 2489 ft | 123 kts | 123° |
| 2026-05-01 12:44 | 31.28302 | 130.67824 | 2492 ft | 124 kts | 123° |
| 2026-05-01 12:45 | 31.27289 | 130.69464 | 2495 ft | 124 kts | 123° |
| 2026-05-01 12:45 | 31.26788 | 130.70283 | 2492 ft | 124 kts | 123° |
| 2026-05-01 12:45 | 31.26282 | 130.71103 | 2487 ft | 124 kts | 123° |
| 2026-05-01 12:46 | 31.25774 | 130.71933 | 2491 ft | 124 kts | 122° |
| 2026-05-01 12:46 | 31.25476 | 130.72849 | 2494 ft | 119 kts | 94° |
| 2026-05-01 12:46 | 31.25303 | 130.73796 | 2492 ft | 120 kts | 94° |
| 2026-05-01 12:46 | 31.25137 | 130.74756 | 2493 ft | 120 kts | 94° |
| 2026-05-01 12:47 | 31.24976 | 130.75720 | 2498 ft | 120 kts | 93° |
| 2026-05-01 12:47 | 31.24807 | 130.76680 | 2492 ft | 121 kts | 91° |
| 2026-05-01 12:47 | 31.24654 | 130.77646 | 2488 ft | 118 kts | 85° |
| 2026-05-01 12:47 | 31.24685 | 130.78575 | 2494 ft | 114 kts | 73° |
| 2026-05-01 12:48 | 31.24754 | 130.79511 | 2501 ft | 114 kts | 72° |
| 2026-05-01 12:48 | 31.24831 | 130.80440 | 2505 ft | 115 kts | 73° |
| 2026-05-01 12:48 | 31.24914 | 130.81370 | 2499 ft | 115 kts | 70° |
| 2026-05-01 12:48 | 31.24989 | 130.82295 | 2489 ft | 115 kts | 71° |
| 2026-05-01 12:49 | 31.25128 | 130.83199 | 2487 ft | 111 kts | 64° |
| 2026-05-01 12:49 | 31.25301 | 130.84074 | 2490 ft | 110 kts | 64° |
| 2026-05-01 12:49 | 31.25487 | 130.84940 | 2486 ft | 109 kts | 60° |
| 2026-05-01 12:49 | 31.25789 | 130.85725 | 2492 ft | 103 kts | 47° |
| 2026-05-01 12:50 | 31.26118 | 130.86470 | 2495 ft | 103 kts | 48° |
| 2026-05-01 12:50 | 31.26444 | 130.87219 | 2495 ft | 104 kts | 47° |
| 2026-05-01 12:50 | 31.26767 | 130.87981 | 2511 ft | 106 kts | 49° |
| 2026-05-01 12:50 | 31.27109 | 130.88757 | 2516 ft | 106 kts | 47° |
| 2026-05-01 12:51 | 31.27444 | 130.89528 | 2521 ft | 108 kts | 47° |
| 2026-05-01 12:51 | 31.27796 | 130.90323 | 2518 ft | 109 kts | 48° |
| 2026-05-01 12:51 | 31.28595 | 130.91754 | 2500 ft | 102 kts | 38° |
| 2026-05-01 12:52 | 31.29015 | 130.92430 | 2513 ft | 102 kts | 39° |
| 2026-05-01 12:52 | 31.29881 | 130.93767 | 2496 ft | 101 kts | 35° |
| 2026-05-01 12:52 | 31.30342 | 130.94379 | 2503 ft | 100 kts | 34° |
| 2026-05-01 12:53 | 31.31302 | 130.95592 | 2495 ft | 103 kts | 34° |
| 2026-05-01 12:53 | 31.31791 | 130.96191 | 2488 ft | 101 kts | 31° |
| 2026-05-01 12:53 | 31.32272 | 130.96794 | 2475 ft | 100 kts | 33° |
| 2026-05-01 12:54 | 31.32737 | 130.97389 | 2464 ft | 98 kts | 31° |
| 2026-05-01 12:54 | 31.33627 | 130.98561 | 2528 ft | 97 kts | 31° |
| 2026-05-01 12:54 | 31.34094 | 130.99146 | 2521 ft | 99 kts | 27° |
| 2026-05-01 12:55 | 31.35253 | 130.99916 | 2521 ft | 96 kts | 11° |
| 2026-05-01 12:55 | 31.35844 | 131.00272 | 2494 ft | 95 kts | 14° |
| 2026-05-01 12:55 | 31.36433 | 131.00583 | 2492 ft | 91 kts | 7° |
| 2026-05-01 12:56 | 31.37011 | 131.00867 | 2494 ft | 89 kts | 6° |
| 2026-05-01 12:56 | 31.37588 | 131.01143 | 2491 ft | 89 kts | 7° |
| 2026-05-01 12:56 | 31.38107 | 131.01599 | 2484 ft | 103 kts | 41° |
| 2026-05-01 12:56 | 31.38452 | 131.02357 | 2485 ft | 106 kts | 51° |
| 2026-05-01 12:57 | 31.38707 | 131.03191 | 2476 ft | 115 kts | 74° |
| 2026-05-01 12:57 | 31.38038 | 131.04918 | 2477 ft | 123 kts | 145° |
| 2026-05-01 12:57 | 31.37273 | 131.05301 | 2486 ft | 118 kts | 169° |
| 2026-05-01 12:58 | 31.36476 | 131.05563 | 2492 ft | 117 kts | 174° |
| 2026-05-01 12:58 | 31.35719 | 131.05512 | 2487 ft | 104 kts | 214° |
| 2026-05-01 12:58 | 31.35232 | 131.05009 | 2486 ft | 86 kts | 253° |
| 2026-05-01 12:59 | 31.34981 | 131.03749 | 2500 ft | 79 kts | 273° |
| 2026-05-01 12:59 | 31.34921 | 131.03104 | 2495 ft | 78 kts | 281° |
| 2026-05-01 12:59 | 31.35198 | 131.01910 | 2498 ft | 76 kts | 292° |
| 2026-05-01 13:00 | 31.36140 | 131.01447 | 2501 ft | 85 kts | 350° |
| 2026-05-01 13:00 | 31.36728 | 131.01495 | 2490 ft | 84 kts | 353° |
| 2026-05-01 13:01 | 31.37891 | 131.01627 | 2483 ft | 83 kts | 353° |
| 2026-05-01 13:01 | 31.38469 | 131.01706 | 2489 ft | 82 kts | 352° |
| 2026-05-01 13:01 | 31.39605 | 131.01834 | 2487 ft | 81 kts | 353° |
| 2026-05-01 13:02 | 31.40154 | 131.02104 | 2485 ft | 90 kts | 19° |
| 2026-05-01 13:07 | 31.45931 | 131.16167 | 1984 ft | 122 kts | 105° |
| 2026-05-01 13:07 | 31.45668 | 131.17113 | 1875 ft | 119 kts | 95° |
| 2026-05-01 13:07 | 31.45569 | 131.18071 | 1735 ft | 119 kts | 85° |
| 2026-05-01 13:08 | 31.45559 | 131.19016 | 1642 ft | 114 kts | 82° |
| 2026-05-01 13:08 | 31.45690 | 131.19875 | 1548 ft | 103 kts | 62° |
| 2026-05-01 13:08 | 31.45828 | 131.20750 | 1529 ft | 111 kts | 76° |
| 2026-05-01 13:08 | 31.45931 | 131.21646 | 1480 ft | 108 kts | 65° |
| 2026-05-01 13:09 | 31.46269 | 131.22376 | 1488 ft | 100 kts | 37° |
| 2026-05-01 13:09 | 31.46743 | 131.22978 | 1514 ft | 99 kts | 33° |
| 2026-05-01 13:09 | 31.47241 | 131.23508 | 1571 ft | 96 kts | 30° |
| 2026-05-01 13:09 | 31.47768 | 131.23990 | 1579 ft | 94 kts | 17° |
| 2026-05-01 13:10 | 31.48360 | 131.24291 | 1529 ft | 96 kts | 11° |
| 2026-05-01 13:10 | 31.48979 | 131.24545 | 1524 ft | 92 kts | 6° |
| 2026-05-01 13:10 | 31.49595 | 131.24721 | 1495 ft | 87 kts | 357° |
| 2026-05-01 13:10 | 31.50196 | 131.24818 | 1496 ft | 86 kts | 355° |
| 2026-05-01 13:11 | 31.50800 | 131.24968 | 1486 ft | 88 kts | 3° |
| 2026-05-01 13:11 | 31.51385 | 131.25180 | 1503 ft | 88 kts | 7° |
| 2026-05-01 13:11 | 31.51950 | 131.25525 | 1526 ft | 94 kts | 20° |
| 2026-05-01 13:11 | 31.52494 | 131.26012 | 1567 ft | 100 kts | 22° |
| 2026-05-01 13:12 | 31.53048 | 131.26447 | 1658 ft | 97 kts | 24° |
| 2026-05-01 13:12 | 31.53492 | 131.27170 | 1469 ft | 115 kts | 55° |
| 2026-05-01 13:12 | 31.53771 | 131.28027 | 1438 ft | 108 kts | 61° |
| 2026-05-01 13:12 | 31.54007 | 131.28897 | 1421 ft | 118 kts | 71° |
| 2026-05-01 13:13 | 31.53861 | 131.29823 | 1294 ft | 120 kts | 112° |
| 2026-05-01 13:13 | 31.53546 | 131.30695 | 1324 ft | 110 kts | 107° |
| 2026-05-01 13:13 | 31.53293 | 131.31555 | 1368 ft | 115 kts | 101° |
| 2026-05-01 13:13 | 31.53091 | 131.32459 | 1469 ft | 114 kts | 92° |
| 2026-05-01 13:14 | 31.53155 | 131.33374 | 1495 ft | 112 kts | 67° |
| 2026-05-01 13:14 | 31.53400 | 131.34247 | 1507 ft | 112 kts | 58° |
| 2026-05-01 13:14 | 31.53711 | 131.35107 | 1479 ft | 115 kts | 55° |
| 2026-05-01 13:14 | 31.54163 | 131.35826 | 1468 ft | 106 kts | 20° |
| 2026-05-01 13:15 | 31.54797 | 131.36220 | 1483 ft | 102 kts | 12° |
| 2026-05-01 13:15 | 31.55452 | 131.36531 | 1478 ft | 101 kts | 4° |
| 2026-05-01 13:15 | 31.56119 | 131.36731 | 1488 ft | 99 kts | 0° |
| 2026-05-01 13:15 | 31.56805 | 131.36885 | 1442 ft | 102 kts | 3° |
| 2026-05-01 13:16 | 31.57498 | 131.37093 | 1434 ft | 101 kts | 4° |
| 2026-05-01 13:16 | 31.58154 | 131.37297 | 1470 ft | 92 kts | 0° |
| 2026-05-01 13:16 | 31.58765 | 131.37384 | 1570 ft | 85 kts | 350° |
| 2026-05-01 13:17 | 31.60508 | 131.38107 | 1659 ft | 89 kts | 5° |
| 2026-05-01 13:17 | 31.61121 | 131.38286 | 1634 ft | 90 kts | 4° |
| 2026-05-01 13:18 | 31.62332 | 131.38457 | 1676 ft | 83 kts | 343° |
| 2026-05-01 13:18 | 31.62923 | 131.38319 | 1632 ft | 87 kts | 340° |
| 2026-05-01 13:18 | 31.63491 | 131.38203 | 1659 ft | 86 kts | 343° |
| 2026-05-01 13:18 | 31.64111 | 131.38103 | 1622 ft | 91 kts | 342° |
| 2026-05-01 13:19 | 31.64731 | 131.37970 | 1630 ft | 90 kts | 342° |
| 2026-05-01 13:19 | 31.65349 | 131.37795 | 1612 ft | 90 kts | 342° |
| 2026-05-01 13:19 | 31.66634 | 131.37807 | 1576 ft | 88 kts | 352° |
| 2026-05-01 13:20 | 31.67232 | 131.37782 | 1638 ft | 86 kts | 347° |
| 2026-05-01 13:20 | 31.67843 | 131.37720 | 1698 ft | 87 kts | 346° |
| 2026-05-01 13:20 | 31.68423 | 131.37651 | 1722 ft | 89 kts | 339° |
| 2026-05-01 13:21 | 31.69242 | 131.36714 | 1286 ft | 113 kts | 341° |
| 2026-05-01 13:21 | 31.69393 | 131.35992 | 1350 ft | 90 kts | 288° |
| 2026-05-01 13:21 | 31.69630 | 131.35329 | 1484 ft | 84 kts | 291° |
| 2026-05-01 13:21 | 31.69868 | 131.34711 | 1506 ft | 85 kts | 302° |
| 2026-05-01 13:22 | 31.70142 | 131.34097 | 1591 ft | 82 kts | 295° |
| 2026-05-01 13:22 | 31.70409 | 131.33496 | 1678 ft | 79 kts | 304° |
| 2026-05-01 13:22 | 31.70867 | 131.33150 | 1698 ft | 87 kts | 342° |
| 2026-05-01 13:22 | 31.71447 | 131.32942 | 1759 ft | 85 kts | 326° |
| 2026-05-01 13:23 | 31.72054 | 131.32922 | 1895 ft | 91 kts | 356° |
| 2026-05-01 13:23 | 31.72682 | 131.33041 | 1883 ft | 92 kts | 355° |
| 2026-05-01 13:23 | 31.73315 | 131.33250 | 1907 ft | 100 kts | 22° |
| 2026-05-01 13:23 | 31.73934 | 131.33597 | 1864 ft | 94 kts | 350° |
| 2026-05-01 13:24 | 31.74549 | 131.33453 | 1856 ft | 91 kts | 342° |
| 2026-05-01 13:24 | 31.75163 | 131.33301 | 1800 ft | 89 kts | 339° |
| 2026-05-01 13:24 | 31.75730 | 131.33075 | 1860 ft | 82 kts | 332° |
| 2026-05-01 13:25 | 31.76776 | 131.33173 | 2279 ft | 87 kts | 31° |
| 2026-05-01 13:25 | 31.77253 | 131.33559 | 2437 ft | 80 kts | 352° |
| 2026-05-01 13:25 | 31.77709 | 131.33188 | 2469 ft | 88 kts | 310° |
| 2026-05-01 13:25 | 31.78119 | 131.32665 | 2448 ft | 88 kts | 313° |
| 2026-05-01 13:26 | 31.78570 | 131.32178 | 2458 ft | 86 kts | 316° |
| 2026-05-01 13:26 | 31.79031 | 131.31705 | 2423 ft | 90 kts | 317° |
| 2026-05-01 13:26 | 31.79415 | 131.31140 | 2369 ft | 93 kts | 302° |
| 2026-05-01 13:26 | 31.79765 | 131.30522 | 2384 ft | 89 kts | 316° |
| 2026-05-01 13:27 | 31.80371 | 131.30342 | 2358 ft | 91 kts | 345° |
| 2026-05-01 13:27 | 31.80998 | 131.30252 | 2337 ft | 91 kts | 345° |
| 2026-05-01 13:27 | 31.82244 | 131.30057 | 2223 ft | 85 kts | 344° |
| 2026-05-01 13:28 | 31.82065 | 131.29466 | 2265 ft | 117 kts | 147° |
| 2026-05-01 13:28 | 31.82049 | 131.30232 | 2236 ft | 96 kts | 29° |
| 2026-05-01 13:29 | 31.82887 | 131.31364 | 2214 ft | 106 kts | 65° |
| 2026-05-01 13:29 | 31.83243 | 131.33109 | 2163 ft | 110 kts | 62° |
| 2026-05-01 13:30 | 31.83610 | 131.36722 | 2186 ft | 110 kts | 82° |
| 2026-05-01 13:31 | 31.83551 | 131.38455 | 2016 ft | 107 kts | 82° |
| 2026-05-01 13:31 | 31.83802 | 131.41083 | 1677 ft | 108 kts | 79° |
| 2026-05-01 13:32 | 31.83781 | 131.42784 | 1591 ft | 106 kts | 123° |
| 2026-05-01 13:33 | 31.83182 | 131.42197 | 1576 ft | 88 kts | 353° |
| 2026-05-01 13:33 | 31.83429 | 131.43498 | 1598 ft | 111 kts | 141° |
| 2026-05-01 13:34 | 31.82493 | 131.43042 | 1636 ft | 75 kts | 282° |
| 2026-05-01 13:34 | 31.83325 | 131.42686 | 1727 ft | 86 kts | 21° |
| 2026-05-01 13:35 | 31.83273 | 131.44163 | 1685 ft | 113 kts | 155° |
| 2026-05-01 13:35 | 31.82601 | 131.44061 | 1685 ft | 93 kts | 235° |
| 2026-05-01 13:35 | 31.83105 | 131.43408 | 1666 ft | 94 kts | 24° |
| 2026-05-01 13:36 | 31.83315 | 131.44185 | 1649 ft | 113 kts | 100° |
| 2026-05-01 13:36 | 31.82754 | 131.44751 | 1630 ft | 111 kts | 181° |
| 2026-05-01 13:36 | 31.82060 | 131.43692 | 1635 ft | 83 kts | 277° |
| 2026-05-01 13:37 | 31.82099 | 131.43018 | 1641 ft | 84 kts | 276° |
| 2026-05-01 13:37 | 31.82211 | 131.42375 | 1616 ft | 82 kts | 310° |
| 2026-05-01 13:37 | 31.82781 | 131.42219 | 1559 ft | 96 kts | 8° |
| 2026-05-01 13:37 | 31.83254 | 131.42824 | 1545 ft | 111 kts | 65° |
| 2026-05-01 13:38 | 31.82735 | 131.44403 | 1565 ft | 111 kts | 167° |
| 2026-05-01 13:38 | 31.82024 | 131.44284 | 1529 ft | 101 kts | 227° |
| 2026-05-01 13:38 | 31.81809 | 131.43608 | 1522 ft | 87 kts | 282° |
| 2026-05-01 13:39 | 31.81905 | 131.42928 | 1557 ft | 81 kts | 284° |
| 2026-05-01 13:39 | 31.82128 | 131.42360 | 1588 ft | 79 kts | 324° |
| 2026-05-01 13:39 | 31.82699 | 131.42416 | 1594 ft | 95 kts | 20° |
| 2026-05-01 13:39 | 31.83057 | 131.43143 | 1555 ft | 114 kts | 76° |
| 2026-05-01 13:40 | 31.82922 | 131.44022 | 1620 ft | 112 kts | 128° |
| 2026-05-01 13:40 | 31.82264 | 131.44171 | 1643 ft | 90 kts | 231° |
| 2026-05-01 13:40 | 31.82075 | 131.43518 | 1636 ft | 89 kts | 270° |
| 2026-05-01 13:40 | 31.82047 | 131.42810 | 1567 ft | 85 kts | 274° |
| 2026-05-01 13:41 | 31.82048 | 131.42120 | 1512 ft | 84 kts | 278° |
| 2026-05-01 13:41 | 31.82448 | 131.41685 | 1548 ft | 88 kts | 348° |
| 2026-05-01 13:41 | 31.83034 | 131.42007 | 1546 ft | 104 kts | 39° |
| 2026-05-01 13:41 | 31.83279 | 131.42845 | 1585 ft | 114 kts | 77° |
| 2026-05-01 13:42 | 31.83324 | 131.43770 | 1612 ft | 114 kts | 94° |
| 2026-05-01 13:42 | 31.82805 | 131.44400 | 1645 ft | 112 kts | 168° |
| 2026-05-01 13:42 | 31.82139 | 131.44174 | 1596 ft | 98 kts | 243° |
| 2026-05-01 13:42 | 31.82027 | 131.43465 | 1580 ft | 86 kts | 273° |
| 2026-05-01 13:43 | 31.82041 | 131.42789 | 1577 ft | 80 kts | 277° |
| 2026-05-01 13:43 | 31.82396 | 131.42381 | 1567 ft | 87 kts | 352° |